sensor_id;sensor_type;location;lat;lon;timestamp;P1;durP1;ratioP1;P2;durP2;ratioP2
27201;SDS011;14717;46.924;15.474;2024-01-06T00:00:19;25.90;;;9.60;;
27201;SDS011;14717;46.924;15.474;2024-01-06T00:02:48;19.20;;;8.13;;
27201;SDS011;14717;46.924;15.474;2024-01-06T00:05:14;17.75;;;9.05;;
27201;SDS011;14717;46.924;15.474;2024-01-06T00:07:39;18.77;;;9.20;;
27201;SDS011;14717;46.924;15.474;2024-01-06T00:10:05;19.35;;;8.75;;
27201;SDS011;14717;46.924;15.474;2024-01-06T00:12:31;21.83;;;9.07;;
27201;SDS011;14717;46.924;15.474;2024-01-06T00:14:56;21.27;;;8.55;;
27201;SDS011;14717;46.924;15.474;2024-01-06T00:17:21;18.15;;;9.15;;
27201;SDS011;14717;46.924;15.474;2024-01-06T00:19:47;20.55;;;9.20;;
27201;SDS011;14717;46.924;15.474;2024-01-06T00:22:15;19.48;;;8.60;;
27201;SDS011;14717;46.924;15.474;2024-01-06T00:24:41;20.05;;;8.55;;
27201;SDS011;14717;46.924;15.474;2024-01-06T00:27:06;18.90;;;8.75;;
27201;SDS011;14717;46.924;15.474;2024-01-06T00:29:32;16.88;;;9.07;;
27201;SDS011;14717;46.924;15.474;2024-01-06T00:31:57;20.67;;;9.27;;
27201;SDS011;14717;46.924;15.474;2024-01-06T00:34:22;21.27;;;8.95;;
27201;SDS011;14717;46.924;15.474;2024-01-06T00:36:48;16.88;;;8.40;;
27201;SDS011;14717;46.924;15.474;2024-01-06T00:39:13;19.02;;;9.07;;
27201;SDS011;14717;46.924;15.474;2024-01-06T00:41:38;16.08;;;8.30;;
27201;SDS011;14717;46.924;15.474;2024-01-06T00:44:04;15.35;;;8.25;;
27201;SDS011;14717;46.924;15.474;2024-01-06T00:46:29;18.45;;;8.73;;
27201;SDS011;14717;46.924;15.474;2024-01-06T00:48:54;18.98;;;8.30;;
27201;SDS011;14717;46.924;15.474;2024-01-06T00:51:19;14.90;;;7.85;;
27201;SDS011;14717;46.924;15.474;2024-01-06T00:53:45;16.83;;;8.48;;
27201;SDS011;14717;46.924;15.474;2024-01-06T00:56:10;18.10;;;8.60;;
27201;SDS011;14717;46.924;15.474;2024-01-06T00:58:36;18.75;;;9.40;;
27201;SDS011;14717;46.924;15.474;2024-01-06T01:01:01;18.00;;;8.55;;
27201;SDS011;14717;46.924;15.474;2024-01-06T01:03:26;18.83;;;9.25;;
27201;SDS011;14717;46.924;15.474;2024-01-06T01:05:52;21.17;;;9.75;;
27201;SDS011;14717;46.924;15.474;2024-01-06T01:08:17;20.40;;;10.05;;
27201;SDS011;14717;46.924;15.474;2024-01-06T01:10:43;20.88;;;10.48;;
27201;SDS011;14717;46.924;15.474;2024-01-06T01:13:09;26.63;;;10.85;;
27201;SDS011;14717;46.924;15.474;2024-01-06T01:15:35;20.10;;;11.00;;
27201;SDS011;14717;46.924;15.474;2024-01-06T01:18:00;24.33;;;12.23;;
27201;SDS011;14717;46.924;15.474;2024-01-06T01:20:25;24.25;;;11.70;;
27201;SDS011;14717;46.924;15.474;2024-01-06T01:22:51;29.40;;;13.32;;
27201;SDS011;14717;46.924;15.474;2024-01-06T01:25:16;26.58;;;12.30;;
27201;SDS011;14717;46.924;15.474;2024-01-06T01:27:41;26.55;;;13.05;;
27201;SDS011;14717;46.924;15.474;2024-01-06T01:30:07;25.27;;;12.40;;
27201;SDS011;14717;46.924;15.474;2024-01-06T01:32:33;18.17;;;10.63;;
27201;SDS011;14717;46.924;15.474;2024-01-06T01:34:58;28.13;;;12.00;;
27201;SDS011;14717;46.924;15.474;2024-01-06T01:37:23;26.17;;;11.25;;
27201;SDS011;14717;46.924;15.474;2024-01-06T01:39:49;22.83;;;10.80;;
27201;SDS011;14717;46.924;15.474;2024-01-06T01:42:14;22.05;;;10.30;;
27201;SDS011;14717;46.924;15.474;2024-01-06T01:44:39;19.13;;;10.18;;
27201;SDS011;14717;46.924;15.474;2024-01-06T01:47:05;20.40;;;9.80;;
27201;SDS011;14717;46.924;15.474;2024-01-06T01:49:31;19.77;;;9.45;;
27201;SDS011;14717;46.924;15.474;2024-01-06T01:54:22;19.50;;;8.43;;
27201;SDS011;14717;46.924;15.474;2024-01-06T01:56:48;17.70;;;8.25;;
27201;SDS011;14717;46.924;15.474;2024-01-06T01:59:14;16.55;;;8.38;;
27201;SDS011;14717;46.924;15.474;2024-01-06T02:01:42;18.95;;;8.85;;
27201;SDS011;14717;46.924;15.474;2024-01-06T02:04:08;18.08;;;8.05;;
27201;SDS011;14717;46.924;15.474;2024-01-06T02:06:34;18.67;;;8.25;;
27201;SDS011;14717;46.924;15.474;2024-01-06T02:08:59;18.92;;;8.90;;
27201;SDS011;14717;46.924;15.474;2024-01-06T02:11:25;19.67;;;9.50;;
27201;SDS011;14717;46.924;15.474;2024-01-06T02:13:50;16.27;;;8.52;;
27201;SDS011;14717;46.924;15.474;2024-01-06T02:16:16;16.42;;;7.45;;
27201;SDS011;14717;46.924;15.474;2024-01-06T02:18:41;22.52;;;8.68;;
27201;SDS011;14717;46.924;15.474;2024-01-06T02:21:07;16.00;;;8.13;;
27201;SDS011;14717;46.924;15.474;2024-01-06T02:23:34;17.08;;;8.48;;
27201;SDS011;14717;46.924;15.474;2024-01-06T02:26:01;17.70;;;9.13;;
27201;SDS011;14717;46.924;15.474;2024-01-06T02:28:27;20.38;;;8.80;;
27201;SDS011;14717;46.924;15.474;2024-01-06T02:30:52;17.70;;;8.60;;
27201;SDS011;14717;46.924;15.474;2024-01-06T02:33:17;20.63;;;9.48;;
27201;SDS011;14717;46.924;15.474;2024-01-06T02:35:44;17.95;;;9.20;;
27201;SDS011;14717;46.924;15.474;2024-01-06T02:38:13;14.50;;;7.95;;
27201;SDS011;14717;46.924;15.474;2024-01-06T02:40:38;18.80;;;8.18;;
27201;SDS011;14717;46.924;15.474;2024-01-06T02:43:03;14.68;;;8.18;;
27201;SDS011;14717;46.924;15.474;2024-01-06T02:45:29;16.77;;;8.52;;
27201;SDS011;14717;46.924;15.474;2024-01-06T02:47:54;21.10;;;9.13;;
27201;SDS011;14717;46.924;15.474;2024-01-06T02:50:20;16.55;;;7.90;;
27201;SDS011;14717;46.924;15.474;2024-01-06T02:52:46;22.58;;;8.18;;
27201;SDS011;14717;46.924;15.474;2024-01-06T02:55:12;15.70;;;8.10;;
27201;SDS011;14717;46.924;15.474;2024-01-06T02:57:37;14.90;;;7.50;;
27201;SDS011;14717;46.924;15.474;2024-01-06T03:00:03;14.32;;;7.00;;
27201;SDS011;14717;46.924;15.474;2024-01-06T03:02:28;16.00;;;7.45;;
27201;SDS011;14717;46.924;15.474;2024-01-06T03:04:54;14.68;;;7.30;;
27201;SDS011;14717;46.924;15.474;2024-01-06T03:07:20;19.40;;;8.18;;
27201;SDS011;14717;46.924;15.474;2024-01-06T03:09:45;18.45;;;8.43;;
27201;SDS011;14717;46.924;15.474;2024-01-06T03:12:11;12.80;;;7.10;;
27201;SDS011;14717;46.924;15.474;2024-01-06T03:14:37;16.05;;;7.70;;
27201;SDS011;14717;46.924;15.474;2024-01-06T03:17:03;12.85;;;7.30;;
27201;SDS011;14717;46.924;15.474;2024-01-06T03:19:29;18.05;;;7.28;;
27201;SDS011;14717;46.924;15.474;2024-01-06T03:21:56;14.57;;;7.60;;
27201;SDS011;14717;46.924;15.474;2024-01-06T03:24:23;14.80;;;7.55;;
27201;SDS011;14717;46.924;15.474;2024-01-06T03:26:50;13.98;;;7.20;;
27201;SDS011;14717;46.924;15.474;2024-01-06T03:29:16;13.13;;;7.32;;
27201;SDS011;14717;46.924;15.474;2024-01-06T03:31:44;17.65;;;7.72;;
27201;SDS011;14717;46.924;15.474;2024-01-06T03:34:11;15.18;;;7.20;;
27201;SDS011;14717;46.924;15.474;2024-01-06T03:36:39;14.57;;;7.55;;
27201;SDS011;14717;46.924;15.474;2024-01-06T03:39:05;15.48;;;6.80;;
27201;SDS011;14717;46.924;15.474;2024-01-06T03:41:31;16.10;;;7.47;;
27201;SDS011;14717;46.924;15.474;2024-01-06T03:43:56;12.27;;;6.47;;
27201;SDS011;14717;46.924;15.474;2024-01-06T03:46:22;14.38;;;6.80;;
27201;SDS011;14717;46.924;15.474;2024-01-06T03:48:48;11.93;;;6.38;;
27201;SDS011;14717;46.924;15.474;2024-01-06T03:51:13;13.93;;;7.30;;
27201;SDS011;14717;46.924;15.474;2024-01-06T03:53:39;14.30;;;6.82;;
27201;SDS011;14717;46.924;15.474;2024-01-06T03:56:05;14.95;;;7.35;;
27201;SDS011;14717;46.924;15.474;2024-01-06T03:58:31;15.00;;;7.03;;
27201;SDS011;14717;46.924;15.474;2024-01-06T04:00:56;16.65;;;7.13;;
27201;SDS011;14717;46.924;15.474;2024-01-06T04:03:22;14.00;;;7.13;;
27201;SDS011;14717;46.924;15.474;2024-01-06T04:05:47;16.73;;;6.75;;
27201;SDS011;14717;46.924;15.474;2024-01-06T04:08:12;13.10;;;6.95;;
27201;SDS011;14717;46.924;15.474;2024-01-06T04:10:38;13.35;;;6.57;;
27201;SDS011;14717;46.924;15.474;2024-01-06T04:15:29;15.70;;;8.10;;
27201;SDS011;14717;46.924;15.474;2024-01-06T04:17:55;19.35;;;8.60;;
27201;SDS011;14717;46.924;15.474;2024-01-06T04:20:20;17.75;;;8.60;;
27201;SDS011;14717;46.924;15.474;2024-01-06T04:22:46;16.77;;;8.68;;
27201;SDS011;14717;46.924;15.474;2024-01-06T04:25:11;21.17;;;8.75;;
27201;SDS011;14717;46.924;15.474;2024-01-06T04:27:36;19.00;;;9.48;;
27201;SDS011;14717;46.924;15.474;2024-01-06T04:30:02;15.55;;;8.15;;
27201;SDS011;14717;46.924;15.474;2024-01-06T04:32:27;16.20;;;7.50;;
27201;SDS011;14717;46.924;15.474;2024-01-06T04:34:53;16.15;;;8.05;;
27201;SDS011;14717;46.924;15.474;2024-01-06T04:37:18;16.42;;;8.00;;
27201;SDS011;14717;46.924;15.474;2024-01-06T04:39:43;16.13;;;8.15;;
27201;SDS011;14717;46.924;15.474;2024-01-06T04:42:09;14.85;;;8.13;;
27201;SDS011;14717;46.924;15.474;2024-01-06T04:44:34;14.57;;;8.68;;
27201;SDS011;14717;46.924;15.474;2024-01-06T04:46:59;16.90;;;8.10;;
27201;SDS011;14717;46.924;15.474;2024-01-06T04:49:25;20.13;;;8.30;;
27201;SDS011;14717;46.924;15.474;2024-01-06T04:51:50;18.25;;;8.48;;
27201;SDS011;14717;46.924;15.474;2024-01-06T04:54:15;16.55;;;8.13;;
27201;SDS011;14717;46.924;15.474;2024-01-06T04:56:41;12.70;;;7.28;;
27201;SDS011;14717;46.924;15.474;2024-01-06T04:59:06;16.25;;;7.65;;
27201;SDS011;14717;46.924;15.474;2024-01-06T05:01:31;14.18;;;7.60;;
27201;SDS011;14717;46.924;15.474;2024-01-06T05:03:57;14.30;;;7.68;;
27201;SDS011;14717;46.924;15.474;2024-01-06T05:08:49;14.43;;;7.70;;
27201;SDS011;14717;46.924;15.474;2024-01-06T05:11:14;14.38;;;8.05;;
27201;SDS011;14717;46.924;15.474;2024-01-06T05:13:39;17.20;;;7.88;;
27201;SDS011;14717;46.924;15.474;2024-01-06T05:16:05;16.55;;;8.02;;
27201;SDS011;14717;46.924;15.474;2024-01-06T05:20:57;17.13;;;7.53;;
27201;SDS011;14717;46.924;15.474;2024-01-06T05:23:23;18.20;;;9.00;;
27201;SDS011;14717;46.924;15.474;2024-01-06T05:25:48;21.88;;;9.60;;
27201;SDS011;14717;46.924;15.474;2024-01-06T05:28:13;19.80;;;9.30;;
27201;SDS011;14717;46.924;15.474;2024-01-06T05:30:39;20.42;;;8.60;;
27201;SDS011;14717;46.924;15.474;2024-01-06T05:33:04;14.13;;;8.10;;
27201;SDS011;14717;46.924;15.474;2024-01-06T05:35:30;16.40;;;8.18;;
27201;SDS011;14717;46.924;15.474;2024-01-06T05:37:55;22.90;;;8.32;;
27201;SDS011;14717;46.924;15.474;2024-01-06T05:40:21;20.55;;;8.30;;
27201;SDS011;14717;46.924;15.474;2024-01-06T05:42:46;20.77;;;8.27;;
27201;SDS011;14717;46.924;15.474;2024-01-06T05:45:11;23.70;;;8.02;;
27201;SDS011;14717;46.924;15.474;2024-01-06T05:47:39;16.50;;;7.88;;
27201;SDS011;14717;46.924;15.474;2024-01-06T05:50:05;17.95;;;8.77;;
27201;SDS011;14717;46.924;15.474;2024-01-06T05:52:32;17.45;;;8.50;;
27201;SDS011;14717;46.924;15.474;2024-01-06T05:54:58;17.45;;;8.10;;
27201;SDS011;14717;46.924;15.474;2024-01-06T05:57:23;19.17;;;8.52;;
27201;SDS011;14717;46.924;15.474;2024-01-06T05:59:48;17.48;;;8.18;;
27201;SDS011;14717;46.924;15.474;2024-01-06T06:02:14;15.75;;;7.90;;
27201;SDS011;14717;46.924;15.474;2024-01-06T06:04:39;18.02;;;8.23;;
27201;SDS011;14717;46.924;15.474;2024-01-06T06:07:04;19.80;;;9.43;;
27201;SDS011;14717;46.924;15.474;2024-01-06T06:09:30;18.20;;;8.70;;
27201;SDS011;14717;46.924;15.474;2024-01-06T06:11:55;16.75;;;8.45;;
27201;SDS011;14717;46.924;15.474;2024-01-06T06:14:21;15.98;;;8.10;;
27201;SDS011;14717;46.924;15.474;2024-01-06T06:16:46;16.70;;;8.05;;
27201;SDS011;14717;46.924;15.474;2024-01-06T06:19:13;23.30;;;8.65;;
27201;SDS011;14717;46.924;15.474;2024-01-06T06:21:38;17.88;;;8.90;;
27201;SDS011;14717;46.924;15.474;2024-01-06T06:24:03;16.70;;;9.20;;
27201;SDS011;14717;46.924;15.474;2024-01-06T06:26:29;19.35;;;8.65;;
27201;SDS011;14717;46.924;15.474;2024-01-06T06:28:55;14.60;;;8.00;;
27201;SDS011;14717;46.924;15.474;2024-01-06T06:31:20;16.63;;;7.90;;
27201;SDS011;14717;46.924;15.474;2024-01-06T06:33:45;17.35;;;8.43;;
27201;SDS011;14717;46.924;15.474;2024-01-06T06:36:11;17.83;;;8.10;;
27201;SDS011;14717;46.924;15.474;2024-01-06T06:38:36;15.63;;;7.80;;
27201;SDS011;14717;46.924;15.474;2024-01-06T06:41:01;14.45;;;7.70;;
27201;SDS011;14717;46.924;15.474;2024-01-06T06:43:27;18.88;;;8.50;;
27201;SDS011;14717;46.924;15.474;2024-01-06T06:45:52;20.30;;;9.25;;
27201;SDS011;14717;46.924;15.474;2024-01-06T06:48:18;21.02;;;9.57;;
27201;SDS011;14717;46.924;15.474;2024-01-06T06:50:43;14.73;;;8.43;;
27201;SDS011;14717;46.924;15.474;2024-01-06T06:53:09;18.98;;;8.55;;
27201;SDS011;14717;46.924;15.474;2024-01-06T06:55:34;17.23;;;7.55;;
27201;SDS011;14717;46.924;15.474;2024-01-06T06:58:02;15.60;;;8.13;;
27201;SDS011;14717;46.924;15.474;2024-01-06T07:00:27;14.18;;;8.05;;
27201;SDS011;14717;46.924;15.474;2024-01-06T07:02:53;13.75;;;7.53;;
27201;SDS011;14717;46.924;15.474;2024-01-06T07:05:18;20.40;;;8.13;;
27201;SDS011;14717;46.924;15.474;2024-01-06T07:07:43;18.77;;;7.43;;
27201;SDS011;14717;46.924;15.474;2024-01-06T07:10:11;18.25;;;8.48;;
27201;SDS011;14717;46.924;15.474;2024-01-06T07:12:37;21.50;;;7.68;;
27201;SDS011;14717;46.924;15.474;2024-01-06T07:15:03;16.85;;;7.90;;
27201;SDS011;14717;46.924;15.474;2024-01-06T07:17:29;16.60;;;7.60;;
27201;SDS011;14717;46.924;15.474;2024-01-06T07:19:54;19.38;;;8.13;;
27201;SDS011;14717;46.924;15.474;2024-01-06T07:22:19;12.43;;;7.05;;
27201;SDS011;14717;46.924;15.474;2024-01-06T07:24:45;19.30;;;7.65;;
27201;SDS011;14717;46.924;15.474;2024-01-06T07:27:11;17.05;;;8.55;;
27201;SDS011;14717;46.924;15.474;2024-01-06T07:29:36;19.67;;;7.53;;
27201;SDS011;14717;46.924;15.474;2024-01-06T07:32:02;13.85;;;7.85;;
27201;SDS011;14717;46.924;15.474;2024-01-06T07:34:28;24.45;;;8.25;;
27201;SDS011;14717;46.924;15.474;2024-01-06T07:36:54;23.17;;;8.32;;
27201;SDS011;14717;46.924;15.474;2024-01-06T07:39:19;19.63;;;7.13;;
27201;SDS011;14717;46.924;15.474;2024-01-06T07:41:44;19.67;;;8.43;;
27201;SDS011;14717;46.924;15.474;2024-01-06T07:44:11;21.30;;;7.80;;
27201;SDS011;14717;46.924;15.474;2024-01-06T07:46:38;16.45;;;7.43;;
27201;SDS011;14717;46.924;15.474;2024-01-06T07:49:05;19.02;;;7.60;;
27201;SDS011;14717;46.924;15.474;2024-01-06T07:51:30;20.63;;;8.13;;
27201;SDS011;14717;46.924;15.474;2024-01-06T07:53:56;25.42;;;8.00;;
27201;SDS011;14717;46.924;15.474;2024-01-06T07:56:21;18.33;;;8.05;;
27201;SDS011;14717;46.924;15.474;2024-01-06T07:58:46;21.63;;;8.32;;
27201;SDS011;14717;46.924;15.474;2024-01-06T08:01:12;18.23;;;7.95;;
27201;SDS011;14717;46.924;15.474;2024-01-06T08:03:38;23.60;;;8.18;;
27201;SDS011;14717;46.924;15.474;2024-01-06T08:06:03;23.23;;;8.77;;
27201;SDS011;14717;46.924;15.474;2024-01-06T08:08:29;28.65;;;8.95;;
27201;SDS011;14717;46.924;15.474;2024-01-06T08:10:54;22.65;;;8.60;;
27201;SDS011;14717;46.924;15.474;2024-01-06T08:13:19;28.23;;;8.57;;
27201;SDS011;14717;46.924;15.474;2024-01-06T08:15:45;18.55;;;8.90;;
27201;SDS011;14717;46.924;15.474;2024-01-06T08:18:10;22.92;;;9.60;;
27201;SDS011;14717;46.924;15.474;2024-01-06T08:20:36;22.13;;;8.32;;
27201;SDS011;14717;46.924;15.474;2024-01-06T08:23:01;17.88;;;8.68;;
27201;SDS011;14717;46.924;15.474;2024-01-06T08:25:26;24.15;;;9.00;;
27201;SDS011;14717;46.924;15.474;2024-01-06T08:27:52;22.08;;;10.02;;
27201;SDS011;14717;46.924;15.474;2024-01-06T08:30:18;23.17;;;9.93;;
27201;SDS011;14717;46.924;15.474;2024-01-06T08:32:44;20.55;;;9.65;;
27201;SDS011;14717;46.924;15.474;2024-01-06T08:35:09;20.73;;;9.77;;
27201;SDS011;14717;46.924;15.474;2024-01-06T08:37:42;22.52;;;10.27;;
27201;SDS011;14717;46.924;15.474;2024-01-06T08:40:08;20.65;;;11.50;;
27201;SDS011;14717;46.924;15.474;2024-01-06T08:42:34;25.35;;;12.57;;
27201;SDS011;14717;46.924;15.474;2024-01-06T08:44:59;23.45;;;11.82;;
27201;SDS011;14717;46.924;15.474;2024-01-06T08:47:24;26.60;;;12.45;;
27201;SDS011;14717;46.924;15.474;2024-01-06T08:49:50;23.67;;;12.32;;
27201;SDS011;14717;46.924;15.474;2024-01-06T08:52:15;28.50;;;13.77;;
27201;SDS011;14717;46.924;15.474;2024-01-06T08:54:40;26.60;;;14.27;;
27201;SDS011;14717;46.924;15.474;2024-01-06T08:57:06;29.30;;;14.43;;
27201;SDS011;14717;46.924;15.474;2024-01-06T08:59:31;26.23;;;14.32;;
27201;SDS011;14717;46.924;15.474;2024-01-06T09:01:57;29.65;;;15.32;;
27201;SDS011;14717;46.924;15.474;2024-01-06T09:04:22;26.92;;;15.05;;
27201;SDS011;14717;46.924;15.474;2024-01-06T09:06:47;28.88;;;15.57;;
27201;SDS011;14717;46.924;15.474;2024-01-06T09:09:13;24.52;;;15.38;;
27201;SDS011;14717;46.924;15.474;2024-01-06T09:11:39;25.13;;;15.77;;
27201;SDS011;14717;46.924;15.474;2024-01-06T09:14:04;30.60;;;15.38;;
27201;SDS011;14717;46.924;15.474;2024-01-06T09:16:29;31.23;;;16.35;;
27201;SDS011;14717;46.924;15.474;2024-01-06T09:18:55;43.42;;;20.65;;
27201;SDS011;14717;46.924;15.474;2024-01-06T09:21:20;35.30;;;18.73;;
27201;SDS011;14717;46.924;15.474;2024-01-06T09:23:45;40.72;;;19.48;;
27201;SDS011;14717;46.924;15.474;2024-01-06T09:26:11;33.22;;;16.05;;
27201;SDS011;14717;46.924;15.474;2024-01-06T09:28:36;31.95;;;15.30;;
27201;SDS011;14717;46.924;15.474;2024-01-06T09:31:01;25.63;;;11.32;;
27201;SDS011;14717;46.924;15.474;2024-01-06T09:33:27;27.27;;;13.45;;
27201;SDS011;14717;46.924;15.474;2024-01-06T09:35:52;26.65;;;11.40;;
27201;SDS011;14717;46.924;15.474;2024-01-06T09:38:18;24.63;;;11.50;;
27201;SDS011;14717;46.924;15.474;2024-01-06T09:40:44;17.17;;;9.32;;
27201;SDS011;14717;46.924;15.474;2024-01-06T09:43:10;16.23;;;8.15;;
27201;SDS011;14717;46.924;15.474;2024-01-06T09:45:36;25.85;;;11.57;;
27201;SDS011;14717;46.924;15.474;2024-01-06T09:48:12;18.92;;;9.30;;
27201;SDS011;14717;46.924;15.474;2024-01-06T09:50:42;19.40;;;9.90;;
27201;SDS011;14717;46.924;15.474;2024-01-06T09:53:10;16.98;;;9.05;;
27201;SDS011;14717;46.924;15.474;2024-01-06T09:55:36;20.20;;;9.05;;
27201;SDS011;14717;46.924;15.474;2024-01-06T09:58:02;17.30;;;7.80;;
27201;SDS011;14717;46.924;15.474;2024-01-06T10:00:28;16.55;;;6.78;;
27201;SDS011;14717;46.924;15.474;2024-01-06T10:02:53;12.00;;;6.68;;
27201;SDS011;14717;46.924;15.474;2024-01-06T10:07:46;14.60;;;7.10;;
27201;SDS011;14717;46.924;15.474;2024-01-06T10:10:13;15.65;;;7.18;;
27201;SDS011;14717;46.924;15.474;2024-01-06T10:12:40;16.85;;;6.28;;
27201;SDS011;14717;46.924;15.474;2024-01-06T10:15:06;13.55;;;7.70;;
27201;SDS011;14717;46.924;15.474;2024-01-06T10:17:33;17.58;;;7.65;;
27201;SDS011;14717;46.924;15.474;2024-01-06T10:20:02;20.73;;;7.45;;
27201;SDS011;14717;46.924;15.474;2024-01-06T10:22:28;16.13;;;7.75;;
27201;SDS011;14717;46.924;15.474;2024-01-06T10:24:54;18.52;;;9.15;;
27201;SDS011;14717;46.924;15.474;2024-01-06T10:27:20;14.85;;;7.45;;
27201;SDS011;14717;46.924;15.474;2024-01-06T10:29:47;17.58;;;7.80;;
27201;SDS011;14717;46.924;15.474;2024-01-06T10:32:12;11.43;;;5.70;;
27201;SDS011;14717;46.924;15.474;2024-01-06T10:34:38;14.25;;;5.80;;
27201;SDS011;14717;46.924;15.474;2024-01-06T10:37:03;14.77;;;6.35;;
27201;SDS011;14717;46.924;15.474;2024-01-06T10:39:30;19.10;;;6.50;;
27201;SDS011;14717;46.924;15.474;2024-01-06T10:41:56;14.38;;;8.27;;
27201;SDS011;14717;46.924;15.474;2024-01-06T10:46:49;14.95;;;6.75;;
27201;SDS011;14717;46.924;15.474;2024-01-06T10:49:17;13.52;;;6.75;;
27201;SDS011;14717;46.924;15.474;2024-01-06T10:51:46;18.00;;;8.10;;
27201;SDS011;14717;46.924;15.474;2024-01-06T10:54:13;16.88;;;7.57;;
27201;SDS011;14717;46.924;15.474;2024-01-06T10:56:41;14.88;;;7.40;;
27201;SDS011;14717;46.924;15.474;2024-01-06T10:59:08;17.10;;;8.10;;
27201;SDS011;14717;46.924;15.474;2024-01-06T11:01:36;15.65;;;8.32;;
27201;SDS011;14717;46.924;15.474;2024-01-06T11:04:03;17.95;;;7.90;;
27201;SDS011;14717;46.924;15.474;2024-01-06T11:09:43;112.95;;;44.20;;
27201;SDS011;14717;46.924;15.474;2024-01-06T11:11:48;38.92;;;17.08;;
27201;SDS011;14717;46.924;15.474;2024-01-06T11:14:37;26.50;;;12.88;;
27201;SDS011;14717;46.924;15.474;2024-01-06T11:17:02;24.23;;;11.38;;
27201;SDS011;14717;46.924;15.474;2024-01-06T11:24:54;20.60;;;10.20;;
27201;SDS011;14717;46.924;15.474;2024-01-06T11:27:26;17.77;;;10.82;;
27201;SDS011;14717;46.924;15.474;2024-01-06T11:29:55;21.38;;;11.23;;
27201;SDS011;14717;46.924;15.474;2024-01-06T11:35:04;23.00;;;12.85;;
27201;SDS011;14717;46.924;15.474;2024-01-06T11:37:35;21.38;;;11.23;;
27201;SDS011;14717;46.924;15.474;2024-01-06T11:40:22;25.25;;;12.88;;
27201;SDS011;14717;46.924;15.474;2024-01-06T11:42:58;23.52;;;11.82;;
27201;SDS011;14717;46.924;15.474;2024-01-06T11:45:25;23.48;;;12.27;;
27201;SDS011;14717;46.924;15.474;2024-01-06T11:47:53;25.63;;;13.20;;
27201;SDS011;14717;46.924;15.474;2024-01-06T11:50:27;27.25;;;14.00;;
27201;SDS011;14717;46.924;15.474;2024-01-06T11:52:54;34.70;;;15.82;;
27201;SDS011;14717;46.924;15.474;2024-01-06T11:55:20;33.88;;;15.65;;
27201;SDS011;14717;46.924;15.474;2024-01-06T11:57:46;30.63;;;14.88;;
27201;SDS011;14717;46.924;15.474;2024-01-06T12:02:40;26.00;;;13.25;;
27201;SDS011;14717;46.924;15.474;2024-01-06T12:05:10;22.98;;;12.23;;
27201;SDS011;14717;46.924;15.474;2024-01-06T12:07:38;23.98;;;12.00;;
27201;SDS011;14717;46.924;15.474;2024-01-06T12:10:05;26.33;;;12.20;;
27201;SDS011;14717;46.924;15.474;2024-01-06T12:12:32;21.80;;;11.50;;
27201;SDS011;14717;46.924;15.474;2024-01-06T12:14:58;21.25;;;11.88;;
27201;SDS011;14717;46.924;15.474;2024-01-06T12:17:23;20.08;;;11.52;;
27201;SDS011;14717;46.924;15.474;2024-01-06T12:19:55;24.10;;;13.43;;
27201;SDS011;14717;46.924;15.474;2024-01-06T12:22:20;23.63;;;12.32;;
27201;SDS011;14717;46.924;15.474;2024-01-06T12:24:49;30.83;;;17.70;;
27201;SDS011;14717;46.924;15.474;2024-01-06T12:27:16;27.08;;;13.73;;
27201;SDS011;14717;46.924;15.474;2024-01-06T12:29:42;27.38;;;13.07;;
27201;SDS011;14717;46.924;15.474;2024-01-06T12:32:08;28.42;;;13.77;;
27201;SDS011;14717;46.924;15.474;2024-01-06T12:34:34;25.63;;;13.13;;
27201;SDS011;14717;46.924;15.474;2024-01-06T12:37:00;28.63;;;14.75;;
27201;SDS011;14717;46.924;15.474;2024-01-06T12:39:29;24.58;;;12.85;;
27201;SDS011;14717;46.924;15.474;2024-01-06T12:41:56;27.00;;;13.85;;
27201;SDS011;14717;46.924;15.474;2024-01-06T12:44:21;27.15;;;14.32;;
27201;SDS011;14717;46.924;15.474;2024-01-06T12:46:48;25.33;;;14.35;;
27201;SDS011;14717;46.924;15.474;2024-01-06T12:49:13;28.00;;;14.57;;
27201;SDS011;14717;46.924;15.474;2024-01-06T12:51:39;31.83;;;15.98;;
27201;SDS011;14717;46.924;15.474;2024-01-06T12:54:04;40.80;;;19.10;;
27201;SDS011;14717;46.924;15.474;2024-01-06T12:56:30;31.55;;;15.82;;
27201;SDS011;14717;46.924;15.474;2024-01-06T12:58:56;38.83;;;16.77;;
27201;SDS011;14717;46.924;15.474;2024-01-06T13:01:21;38.05;;;16.70;;
27201;SDS011;14717;46.924;15.474;2024-01-06T13:03:47;33.20;;;14.90;;
27201;SDS011;14717;46.924;15.474;2024-01-06T13:06:12;29.48;;;13.75;;
27201;SDS011;14717;46.924;15.474;2024-01-06T13:08:38;29.95;;;13.43;;
27201;SDS011;14717;46.924;15.474;2024-01-06T13:11:04;22.77;;;12.25;;
27201;SDS011;14717;46.924;15.474;2024-01-06T13:13:29;24.38;;;11.90;;
27201;SDS011;14717;46.924;15.474;2024-01-06T13:15:56;20.13;;;10.63;;
27201;SDS011;14717;46.924;15.474;2024-01-06T13:18:22;20.55;;;10.70;;
27201;SDS011;14717;46.924;15.474;2024-01-06T13:20:47;23.63;;;12.88;;
27201;SDS011;14717;46.924;15.474;2024-01-06T13:23:12;21.55;;;11.52;;
27201;SDS011;14717;46.924;15.474;2024-01-06T13:25:38;26.10;;;11.68;;
27201;SDS011;14717;46.924;15.474;2024-01-06T13:28:05;16.40;;;9.82;;
27201;SDS011;14717;46.924;15.474;2024-01-06T13:30:31;21.58;;;10.52;;
27201;SDS011;14717;46.924;15.474;2024-01-06T13:32:57;25.77;;;12.25;;
27201;SDS011;14717;46.924;15.474;2024-01-06T13:35:23;24.58;;;11.93;;
27201;SDS011;14717;46.924;15.474;2024-01-06T13:37:53;25.10;;;12.45;;
27201;SDS011;14717;46.924;15.474;2024-01-06T13:40:20;32.42;;;13.13;;
27201;SDS011;14717;46.924;15.474;2024-01-06T13:42:47;32.38;;;16.83;;
27201;SDS011;14717;46.924;15.474;2024-01-06T13:45:13;45.00;;;21.15;;
27201;SDS011;14717;46.924;15.474;2024-01-06T13:47:39;55.05;;;23.02;;
27201;SDS011;14717;46.924;15.474;2024-01-06T13:50:09;32.60;;;14.98;;
27201;SDS011;14717;46.924;15.474;2024-01-06T13:52:40;29.73;;;14.75;;
27201;SDS011;14717;46.924;15.474;2024-01-06T13:55:06;50.15;;;21.80;;
27201;SDS011;14717;46.924;15.474;2024-01-06T13:57:31;28.15;;;14.70;;
27201;SDS011;14717;46.924;15.474;2024-01-06T13:59:57;32.20;;;15.27;;
27201;SDS011;14717;46.924;15.474;2024-01-06T14:02:23;35.53;;;16.27;;
27201;SDS011;14717;46.924;15.474;2024-01-06T14:04:49;32.22;;;15.77;;
27201;SDS011;14717;46.924;15.474;2024-01-06T14:07:15;33.13;;;16.60;;
27201;SDS011;14717;46.924;15.474;2024-01-06T14:09:43;34.88;;;17.63;;
27201;SDS011;14717;46.924;15.474;2024-01-06T14:12:09;30.75;;;16.67;;
27201;SDS011;14717;46.924;15.474;2024-01-06T14:14:34;34.90;;;16.45;;
27201;SDS011;14717;46.924;15.474;2024-01-06T14:17:00;28.55;;;14.85;;
27201;SDS011;14717;46.924;15.474;2024-01-06T14:19:25;27.00;;;14.85;;
27201;SDS011;14717;46.924;15.474;2024-01-06T14:21:51;23.23;;;12.85;;
27201;SDS011;14717;46.924;15.474;2024-01-06T14:24:16;30.25;;;15.73;;
27201;SDS011;14717;46.924;15.474;2024-01-06T14:26:52;26.83;;;15.18;;
27201;SDS011;14717;46.924;15.474;2024-01-06T14:29:20;26.50;;;14.07;;
27201;SDS011;14717;46.924;15.474;2024-01-06T14:31:46;28.50;;;13.55;;
27201;SDS011;14717;46.924;15.474;2024-01-06T14:34:12;23.42;;;10.57;;
27201;SDS011;14717;46.924;15.474;2024-01-06T14:36:37;24.17;;;12.52;;